sensor_id;sensor_type;location;lat;lon;timestamp;pressure;altitude;pressure_sealevel;temperature;humidity
60974;BME280;46846;51.528;5.076;2023-03-19T00:01:42;100533.56;;;10.15;81.64
60974;BME280;46846;51.528;5.076;2023-03-19T00:04:07;100542.28;;;10.18;81.61
60974;BME280;46846;51.528;5.076;2023-03-19T00:06:32;100540.81;;;10.09;81.84
60974;BME280;46846;51.528;5.076;2023-03-19T00:08:58;100541.75;;;10.08;82.05
60974;BME280;46846;51.528;5.076;2023-03-19T00:11:23;100549.66;;;10.10;81.57
60974;BME280;46846;51.528;5.076;2023-03-19T00:13:49;100547.91;;;10.09;81.98
60974;BME280;46846;51.528;5.076;2023-03-19T00:16:14;100538.97;;;10.11;81.72
60974;BME280;46846;51.528;5.076;2023-03-19T00:18:39;100545.25;;;10.09;81.85
60974;BME280;46846;51.528;5.076;2023-03-19T00:21:05;100549.78;;;10.07;81.86
60974;BME280;46846;51.528;5.076;2023-03-19T00:23:30;100542.72;;;10.06;81.57
60974;BME280;46846;51.528;5.076;2023-03-19T00:25:55;100541.97;;;10.02;81.65
60974;BME280;46846;51.528;5.076;2023-03-19T00:28:21;100545.63;;;9.99;81.93
60974;BME280;46846;51.528;5.076;2023-03-19T00:30:46;100550.94;;;9.99;81.81
60974;BME280;46846;51.528;5.076;2023-03-19T00:33:11;100553.63;;;9.98;81.93
60974;BME280;46846;51.528;5.076;2023-03-19T00:35:38;100550.94;;;9.99;81.87
60974;BME280;46846;51.528;5.076;2023-03-19T00:38:03;100549.06;;;10.02;81.63
60974;BME280;46846;51.528;5.076;2023-03-19T00:40:28;100554.50;;;9.98;81.81
60974;BME280;46846;51.528;5.076;2023-03-19T00:42:54;100548.22;;;10.01;81.68
60974;BME280;46846;51.528;5.076;2023-03-19T00:45:19;100556.38;;;9.96;81.67
60974;BME280;46846;51.528;5.076;2023-03-19T00:47:45;100550.97;;;9.98;81.88
60974;BME280;46846;51.528;5.076;2023-03-19T00:50:11;100557.25;;;9.95;81.70
60974;BME280;46846;51.528;5.076;2023-03-19T00:52:36;100552.81;;;9.96;81.74
60974;BME280;46846;51.528;5.076;2023-03-19T00:55:01;100558.31;;;9.91;81.77
60974;BME280;46846;51.528;5.076;2023-03-19T00:57:27;100552.94;;;9.93;81.82
60974;BME280;46846;51.528;5.076;2023-03-19T00:59:52;100549.53;;;9.89;81.72
60974;BME280;46846;51.528;5.076;2023-03-19T01:02:17;100560.25;;;9.86;81.59
60974;BME280;46846;51.528;5.076;2023-03-19T01:04:43;100561.91;;;9.90;81.69
60974;BME280;46846;51.528;5.076;2023-03-19T01:07:08;100562.06;;;9.85;81.59
60974;BME280;46846;51.528;5.076;2023-03-19T01:09:33;100561.31;;;9.82;81.75
60974;BME280;46846;51.528;5.076;2023-03-19T01:12:00;100559.59;;;9.81;81.65
60974;BME280;46846;51.528;5.076;2023-03-19T01:14:29;100565.78;;;9.80;81.78
60974;BME280;46846;51.528;5.076;2023-03-19T01:16:55;100559.47;;;9.84;81.73
60974;BME280;46846;51.528;5.076;2023-03-19T01:19:20;100557.03;;;9.78;81.85
60974;BME280;46846;51.528;5.076;2023-03-19T01:21:46;100567.56;;;9.81;81.68
60974;BME280;46846;51.528;5.076;2023-03-19T01:24:14;100556.84;;;9.82;81.71
60974;BME280;46846;51.528;5.076;2023-03-19T01:26:39;100562.34;;;9.78;81.77
60974;BME280;46846;51.528;5.076;2023-03-19T01:29:05;100556.22;;;9.76;81.50
60974;BME280;46846;51.528;5.076;2023-03-19T01:31:31;100558.09;;;9.72;81.68
60974;BME280;46846;51.528;5.076;2023-03-19T01:33:56;100552.84;;;9.70;81.82
60974;BME280;46846;51.528;5.076;2023-03-19T01:36:21;100557.34;;;9.68;81.85
60974;BME280;46846;51.528;5.076;2023-03-19T01:38:47;100562.63;;;9.70;81.78
60974;BME280;46846;51.528;5.076;2023-03-19T01:41:12;100564.56;;;9.65;81.69
60974;BME280;46846;51.528;5.076;2023-03-19T01:43:37;100562.88;;;9.62;82.05
60974;BME280;46846;51.528;5.076;2023-03-19T01:48:54;100562.00;;;9.62;81.76
60974;BME280;46846;51.528;5.076;2023-03-19T01:51:26;100565.41;;;9.65;81.86
60974;BME280;46846;51.528;5.076;2023-03-19T01:53:56;100569.81;;;9.66;81.79
60974;BME280;46846;51.528;5.076;2023-03-19T01:56:28;100567.97;;;9.68;81.71
60974;BME280;46846;51.528;5.076;2023-03-19T01:59:00;100567.16;;;9.66;81.63
60974;BME280;46846;51.528;5.076;2023-03-19T02:01:27;100575.16;;;9.66;81.70
60974;BME280;46846;51.528;5.076;2023-03-19T02:03:54;100564.50;;;9.66;81.75
60974;BME280;46846;51.528;5.076;2023-03-19T02:06:20;100573.38;;;9.65;81.50
60974;BME280;46846;51.528;5.076;2023-03-19T02:08:46;100569.13;;;9.61;81.64
60974;BME280;46846;51.528;5.076;2023-03-19T02:11:12;100558.44;;;9.63;81.64
60974;BME280;46846;51.528;5.076;2023-03-19T02:13:38;100571.00;;;9.57;81.53
60974;BME280;46846;51.528;5.076;2023-03-19T02:16:03;100566.66;;;9.55;81.47
60974;BME280;46846;51.528;5.076;2023-03-19T02:18:29;100573.81;;;9.53;81.77
60974;BME280;46846;51.528;5.076;2023-03-19T02:21:10;100574.63;;;9.55;81.64
60974;BME280;46846;51.528;5.076;2023-03-19T02:26:19;100563.09;;;9.56;81.69
60974;BME280;46846;51.528;5.076;2023-03-19T02:28:47;100568.47;;;9.54;81.53
60974;BME280;46846;51.528;5.076;2023-03-19T02:31:14;100571.97;;;9.55;81.56
60974;BME280;46846;51.528;5.076;2023-03-19T02:33:40;100576.31;;;9.57;81.44
60974;BME280;46846;51.528;5.076;2023-03-19T02:36:08;100581.00;;;9.51;81.49
60974;BME280;46846;51.528;5.076;2023-03-19T02:38:35;100579.22;;;9.50;81.60
60974;BME280;46846;51.528;5.076;2023-03-19T02:41:05;100574.84;;;9.49;81.55
60974;BME280;46846;51.528;5.076;2023-03-19T02:43:34;100573.88;;;9.51;81.52
60974;BME280;46846;51.528;5.076;2023-03-19T02:46:01;100579.38;;;9.45;81.66
60974;BME280;46846;51.528;5.076;2023-03-19T02:48:27;100574.16;;;9.43;81.57
60974;BME280;46846;51.528;5.076;2023-03-19T02:50:52;100575.03;;;9.42;81.58
60974;BME280;46846;51.528;5.076;2023-03-19T02:53:18;100572.38;;;9.42;81.51
60974;BME280;46846;51.528;5.076;2023-03-19T02:55:43;100575.03;;;9.42;81.65
60974;BME280;46846;51.528;5.076;2023-03-19T02:58:08;100583.25;;;9.36;81.74
60974;BME280;46846;51.528;5.076;2023-03-19T03:00:35;100578.75;;;9.38;81.74
60974;BME280;46846;51.528;5.076;2023-03-19T03:03:02;100583.25;;;9.36;81.53
60974;BME280;46846;51.528;5.076;2023-03-19T03:05:28;100577.84;;;9.38;81.82
60974;BME280;46846;51.528;5.076;2023-03-19T03:07:53;100585.13;;;9.33;81.68
60974;BME280;46846;51.528;5.076;2023-03-19T03:10:19;100576.25;;;9.34;81.81
60974;BME280;46846;51.528;5.076;2023-03-19T03:12:44;100574.56;;;9.31;81.68
60974;BME280;46846;51.528;5.076;2023-03-19T03:15:10;100578.03;;;9.33;81.73
60974;BME280;46846;51.528;5.076;2023-03-19T03:17:40;100575.34;;;9.33;81.65
60974;BME280;46846;51.528;5.076;2023-03-19T03:20:07;100584.25;;;9.32;81.87
60974;BME280;46846;51.528;5.076;2023-03-19T03:22:33;100581.59;;;9.32;81.67
60974;BME280;46846;51.528;5.076;2023-03-19T03:24:58;100581.63;;;9.30;81.73
60974;BME280;46846;51.528;5.076;2023-03-19T03:27:24;100570.22;;;9.28;81.77
60974;BME280;46846;51.528;5.076;2023-03-19T03:29:49;100572.88;;;9.28;81.44
60974;BME280;46846;51.528;5.076;2023-03-19T03:32:14;100580.06;;;9.25;81.71
60974;BME280;46846;51.528;5.076;2023-03-19T03:34:40;100580.97;;;9.24;81.98
60974;BME280;46846;51.528;5.076;2023-03-19T03:37:05;100584.59;;;9.21;81.82
60974;BME280;46846;51.528;5.076;2023-03-19T03:39:31;100589.91;;;9.21;81.84
60974;BME280;46846;51.528;5.076;2023-03-19T03:41:56;100596.03;;;9.23;81.86
60974;BME280;46846;51.528;5.076;2023-03-19T03:44:21;100590.78;;;9.22;81.78
60974;BME280;46846;51.528;5.076;2023-03-19T03:46:47;100594.38;;;9.21;81.83
60974;BME280;46846;51.528;5.076;2023-03-19T03:49:12;100589.09;;;9.19;81.71
60974;BME280;46846;51.528;5.076;2023-03-19T03:51:37;100592.63;;;9.20;81.55
60974;BME280;46846;51.528;5.076;2023-03-19T03:54:02;100590.06;;;9.16;81.82
60974;BME280;46846;51.528;5.076;2023-03-19T03:56:28;100593.50;;;9.20;81.79
60974;BME280;46846;51.528;5.076;2023-03-19T03:58:53;100592.75;;;9.15;81.63
60974;BME280;46846;51.528;5.076;2023-03-19T04:01:19;100583.94;;;9.14;81.76
60974;BME280;46846;51.528;5.076;2023-03-19T04:03:44;100584.91;;;9.12;81.67
60974;BME280;46846;51.528;5.076;2023-03-19T04:06:14;100589.34;;;9.11;81.78
60974;BME280;46846;51.528;5.076;2023-03-19T04:08:41;100584.91;;;9.12;81.72
60974;BME280;46846;51.528;5.076;2023-03-19T04:11:07;100586.69;;;9.11;81.80
60974;BME280;46846;51.528;5.076;2023-03-19T04:13:32;100595.63;;;9.09;81.66
60974;BME280;46846;51.528;5.076;2023-03-19T04:16:02;100594.75;;;9.08;81.70
60974;BME280;46846;51.528;5.076;2023-03-19T04:18:28;100599.19;;;9.08;81.97
60974;BME280;46846;51.528;5.076;2023-03-19T04:20:54;100600.91;;;9.09;81.70
60974;BME280;46846;51.528;5.076;2023-03-19T04:23:19;100594.91;;;9.03;81.54
60974;BME280;46846;51.528;5.076;2023-03-19T04:25:44;100582.66;;;8.99;81.79
60974;BME280;46846;51.528;5.076;2023-03-19T04:28:10;100590.53;;;9.02;81.79
60974;BME280;46846;51.528;5.076;2023-03-19T04:30:36;100589.78;;;8.97;81.73
60974;BME280;46846;51.528;5.076;2023-03-19T04:33:02;100590.59;;;8.99;81.75
60974;BME280;46846;51.528;5.076;2023-03-19T04:35:27;100583.72;;;8.94;81.75
60974;BME280;46846;51.528;5.076;2023-03-19T04:37:52;100597.84;;;8.94;81.74
60974;BME280;46846;51.528;5.076;2023-03-19T04:40:18;100595.28;;;8.91;81.91
60974;BME280;46846;51.528;5.076;2023-03-19T04:42:43;100607.69;;;8.91;81.93
60974;BME280;46846;51.528;5.076;2023-03-19T04:45:08;100606.06;;;8.86;81.83
60974;BME280;46846;51.528;5.076;2023-03-19T04:47:34;100598.13;;;8.85;81.93
60974;BME280;46846;51.528;5.076;2023-03-19T04:50:00;100601.75;;;8.82;82.06
60974;BME280;46846;51.528;5.076;2023-03-19T04:52:25;100607.13;;;8.81;81.74
60974;BME280;46846;51.528;5.076;2023-03-19T04:54:50;100606.34;;;8.77;81.90
60974;BME280;46846;51.528;5.076;2023-03-19T04:57:16;100614.25;;;8.79;81.66
60974;BME280;46846;51.528;5.076;2023-03-19T04:59:41;100617.03;;;8.74;81.84
60974;BME280;46846;51.528;5.076;2023-03-19T05:02:06;100624.06;;;8.75;81.89
60974;BME280;46846;51.528;5.076;2023-03-19T05:04:32;100613.56;;;8.72;81.97
60974;BME280;46846;51.528;5.076;2023-03-19T05:06:57;100620.59;;;8.73;82.09
60974;BME280;46846;51.528;5.076;2023-03-19T05:09:23;100627.75;;;8.71;81.74
60974;BME280;46846;51.528;5.076;2023-03-19T05:11:48;100628.72;;;8.68;81.93
60974;BME280;46846;51.528;5.076;2023-03-19T05:14:13;100629.53;;;8.70;81.83
60974;BME280;46846;51.528;5.076;2023-03-19T05:16:39;100632.28;;;8.67;81.90
60974;BME280;46846;51.528;5.076;2023-03-19T05:19:04;100634.03;;;8.67;81.65
60974;BME280;46846;51.528;5.076;2023-03-19T05:21:29;100629.75;;;8.63;81.81
60974;BME280;46846;51.528;5.076;2023-03-19T05:23:55;100631.47;;;8.65;81.84
60974;BME280;46846;51.528;5.076;2023-03-19T05:26:21;100629.66;;;8.66;81.86
60974;BME280;46846;51.528;5.076;2023-03-19T05:28:46;100636.78;;;8.65;81.79
60974;BME280;46846;51.528;5.076;2023-03-19T05:31:12;100630.72;;;8.60;81.90
60974;BME280;46846;51.528;5.076;2023-03-19T05:33:37;100629.69;;;8.64;81.72
60974;BME280;46846;51.528;5.076;2023-03-19T05:36:03;100632.41;;;8.63;81.91
60974;BME280;46846;51.528;5.076;2023-03-19T05:38:29;100634.19;;;8.62;81.69
60974;BME280;46846;51.528;5.076;2023-03-19T05:40:54;100643.06;;;8.61;81.57
60974;BME280;46846;51.528;5.076;2023-03-19T05:43:19;100656.47;;;8.56;81.44
60974;BME280;46846;51.528;5.076;2023-03-19T05:45:49;100644.97;;;8.56;81.69
60974;BME280;46846;51.528;5.076;2023-03-19T05:48:15;100653.00;;;8.54;81.57
60974;BME280;46846;51.528;5.076;2023-03-19T05:50:41;100651.22;;;8.53;81.74
60974;BME280;46846;51.528;5.076;2023-03-19T05:53:07;100658.44;;;8.48;81.72
60974;BME280;46846;51.528;5.076;2023-03-19T05:55:32;100661.84;;;8.53;81.64
60974;BME280;46846;51.528;5.076;2023-03-19T05:57:57;100664.66;;;8.47;81.71
60974;BME280;46846;51.528;5.076;2023-03-19T06:00:23;100676.09;;;8.49;81.55
60974;BME280;46846;51.528;5.076;2023-03-19T06:02:48;100673.56;;;8.44;81.67
60974;BME280;46846;51.528;5.076;2023-03-19T06:05:14;100670.09;;;8.42;81.57
60974;BME280;46846;51.528;5.076;2023-03-19T06:07:39;100674.53;;;8.42;81.63
60974;BME280;46846;51.528;5.076;2023-03-19T06:10:05;100678.16;;;8.38;81.58
60974;BME280;46846;51.528;5.076;2023-03-19T06:12:30;100685.13;;;8.42;81.61
60974;BME280;46846;51.528;5.076;2023-03-19T06:14:56;100678.16;;;8.38;81.55
60974;BME280;46846;51.528;5.076;2023-03-19T06:17:21;100684.47;;;8.33;81.52
60974;BME280;46846;51.528;5.076;2023-03-19T06:19:47;100682.78;;;8.31;81.55
60974;BME280;46846;51.528;5.076;2023-03-19T06:22:12;100696.06;;;8.29;81.70
60974;BME280;46846;51.528;5.076;2023-03-19T06:24:37;100691.66;;;8.28;81.48
60974;BME280;46846;51.528;5.076;2023-03-19T06:27:03;100690.84;;;8.26;81.83
60974;BME280;46846;51.528;5.076;2023-03-19T06:29:28;100705.88;;;8.26;81.79
60974;BME280;46846;51.528;5.076;2023-03-19T06:31:53;100698.00;;;8.24;81.53
60974;BME280;46846;51.528;5.076;2023-03-19T06:34:19;100705.94;;;8.24;81.97
60974;BME280;46846;51.528;5.076;2023-03-19T06:36:44;100705.97;;;8.23;81.72
60974;BME280;46846;51.528;5.076;2023-03-19T06:39:10;100713.00;;;8.24;81.63
60974;BME280;46846;51.528;5.076;2023-03-19T06:41:35;100711.31;;;8.21;81.75
60974;BME280;46846;51.528;5.076;2023-03-19T06:44:02;100713.94;;;8.21;81.74
60974;BME280;46846;51.528;5.076;2023-03-19T06:46:27;100717.50;;;8.21;81.73
60974;BME280;46846;51.528;5.076;2023-03-19T06:48:52;100724.56;;;8.21;81.64
60974;BME280;46846;51.528;5.076;2023-03-19T06:51:18;100716.63;;;8.19;81.67
60974;BME280;46846;51.528;5.076;2023-03-19T06:53:43;100721.16;;;8.16;81.79
60974;BME280;46846;51.528;5.076;2023-03-19T06:56:08;100720.38;;;8.12;81.75
60974;BME280;46846;51.528;5.076;2023-03-19T06:58:34;100728.22;;;8.17;81.66
60974;BME280;46846;51.528;5.076;2023-03-19T07:01:00;100727.38;;;8.15;81.64
60974;BME280;46846;51.528;5.076;2023-03-19T07:03:26;100720.31;;;8.14;81.41
60974;BME280;46846;51.528;5.076;2023-03-19T07:05:51;100727.38;;;8.15;81.53
60974;BME280;46846;51.528;5.076;2023-03-19T07:08:17;100730.81;;;8.18;81.33
60974;BME280;46846;51.528;5.076;2023-03-19T07:10:42;100730.91;;;8.15;81.29
60974;BME280;46846;51.528;5.076;2023-03-19T07:13:08;100739.75;;;8.14;81.21
60974;BME280;46846;51.528;5.076;2023-03-19T07:15:33;100739.88;;;8.10;81.52
60974;BME280;46846;51.528;5.076;2023-03-19T07:18:00;100745.31;;;8.05;81.38
60974;BME280;46846;51.528;5.076;2023-03-19T07:20:27;100749.63;;;8.07;81.67
60974;BME280;46846;51.528;5.076;2023-03-19T07:22:52;100747.84;;;8.10;81.60
60974;BME280;46846;51.528;5.076;2023-03-19T07:25:18;100748.63;;;8.13;81.28
60974;BME280;46846;51.528;5.076;2023-03-19T07:27:43;100755.06;;;8.03;81.48
60974;BME280;46846;51.528;5.076;2023-03-19T07:30:10;100762.16;;;8.02;81.44
60974;BME280;46846;51.528;5.076;2023-03-19T07:32:36;100760.22;;;8.07;81.58
60974;BME280;46846;51.528;5.076;2023-03-19T07:35:06;100761.16;;;8.06;81.47
60974;BME280;46846;51.528;5.076;2023-03-19T07:37:32;100761.00;;;8.13;81.38
60974;BME280;46846;51.528;5.076;2023-03-19T07:39:58;100769.22;;;8.02;81.34
60974;BME280;46846;51.528;5.076;2023-03-19T07:42:23;100771.97;;;7.99;81.53
60974;BME280;46846;51.528;5.076;2023-03-19T07:44:49;100772.66;;;8.05;81.16
60974;BME280;46846;51.528;5.076;2023-03-19T07:47:14;100775.47;;;7.99;81.33
60974;BME280;46846;51.528;5.076;2023-03-19T07:49:39;100779.84;;;8.00;81.38
60974;BME280;46846;51.528;5.076;2023-03-19T07:52:06;100778.91;;;8.03;81.16
60974;BME280;46846;51.528;5.076;2023-03-19T07:54:32;100774.47;;;8.05;81.01
60974;BME280;46846;51.528;5.076;2023-03-19T07:56:57;100774.59;;;7.99;81.44
60974;BME280;46846;51.528;5.076;2023-03-19T07:59:22;100775.31;;;8.05;81.38
60974;BME280;46846;51.528;5.076;2023-03-19T08:01:48;100786.19;;;7.94;81.56
60974;BME280;46846;51.528;5.076;2023-03-19T08:04:13;100790.69;;;7.91;81.51
60974;BME280;46846;51.528;5.076;2023-03-19T08:06:38;100787.13;;;7.92;81.48
60974;BME280;46846;51.528;5.076;2023-03-19T08:09:04;100786.16;;;7.96;81.41
60974;BME280;46846;51.528;5.076;2023-03-19T08:11:29;100788.03;;;7.91;81.50
60974;BME280;46846;51.528;5.076;2023-03-19T08:13:55;100789.75;;;7.92;81.32
60974;BME280;46846;51.528;5.076;2023-03-19T08:16:20;100793.31;;;7.91;81.59
60974;BME280;46846;51.528;5.076;2023-03-19T08:18:46;100796.88;;;7.90;81.32
60974;BME280;46846;51.528;5.076;2023-03-19T08:21:11;100800.44;;;7.89;81.60
60974;BME280;46846;51.528;5.076;2023-03-19T08:23:36;100806.56;;;7.91;81.51
60974;BME280;46846;51.528;5.076;2023-03-19T08:26:02;100802.97;;;7.93;81.63
60974;BME280;46846;51.528;5.076;2023-03-19T08:28:27;100805.72;;;7.90;81.64
60974;BME280;46846;51.528;5.076;2023-03-19T08:30:52;100800.44;;;7.89;81.73
60974;BME280;46846;51.528;5.076;2023-03-19T08:33:19;100805.50;;;7.98;81.54
60974;BME280;46846;51.528;5.076;2023-03-19T08:35:45;100810.66;;;8.06;81.65
60974;BME280;46846;51.528;5.076;2023-03-19T08:38:10;100811.59;;;8.03;81.54
60974;BME280;46846;51.528;5.076;2023-03-19T08:40:36;100815.06;;;8.05;81.45
60974;BME280;46846;51.528;5.076;2023-03-19T08:43:01;100809.78;;;8.04;81.44
60974;BME280;46846;51.528;5.076;2023-03-19T08:45:28;100811.50;;;8.06;81.21
60974;BME280;46846;51.528;5.076;2023-03-19T08:47:53;100816.69;;;8.11;81.58
60974;BME280;46846;51.528;5.076;2023-03-19T08:50:19;100812.34;;;8.09;81.35
60974;BME280;46846;51.528;5.076;2023-03-19T08:52:44;100805.19;;;8.12;81.44
60974;BME280;46846;51.528;5.076;2023-03-19T08:55:10;100816.69;;;8.11;81.28
60974;BME280;46846;51.528;5.076;2023-03-19T08:57:36;100813.84;;;8.19;81.33
60974;BME280;46846;51.528;5.076;2023-03-19T09:00:02;100816.56;;;8.16;81.35
60974;BME280;46846;51.528;5.076;2023-03-19T09:02:30;100809.38;;;8.21;81.19
60974;BME280;46846;51.528;5.076;2023-03-19T09:04:55;100812.81;;;8.25;80.93
60974;BME280;46846;51.528;5.076;2023-03-19T09:07:20;100821.66;;;8.25;81.17
60974;BME280;46846;51.528;5.076;2023-03-19T09:09:47;100823.44;;;8.25;80.89
60974;BME280;46846;51.528;5.076;2023-03-19T09:12:14;100818.94;;;8.27;81.27
60974;BME280;46846;51.528;5.076;2023-03-19T09:14:41;100818.16;;;8.23;81.25
60974;BME280;46846;51.528;5.076;2023-03-19T09:17:07;100821.56;;;8.28;81.21
60974;BME280;46846;51.528;5.076;2023-03-19T09:19:33;100826.72;;;8.34;81.13
60974;BME280;46846;51.528;5.076;2023-03-19T09:21:59;100831.88;;;8.41;81.13
60974;BME280;46846;51.528;5.076;2023-03-19T09:24:24;100828.31;;;8.42;81.28
60974;BME280;46846;51.528;5.076;2023-03-19T09:26:51;100835.28;;;8.46;81.47
60974;BME280;46846;51.528;5.076;2023-03-19T09:29:16;100836.22;;;8.43;81.43
60974;BME280;46846;51.528;5.076;2023-03-19T09:31:42;100832.63;;;8.46;81.57
60974;BME280;46846;51.528;5.076;2023-03-19T09:34:07;100843.13;;;8.51;81.32
60974;BME280;46846;51.528;5.076;2023-03-19T09:36:36;100851.00;;;8.55;81.41
60974;BME280;46846;51.528;5.076;2023-03-19T09:39:03;100854.56;;;8.54;81.28
60974;BME280;46846;51.528;5.076;2023-03-19T09:41:50;100854.34;;;8.62;81.57
60974;BME280;46846;51.528;5.076;2023-03-19T09:44:29;100860.47;;;8.64;81.59
60974;BME280;46846;51.528;5.076;2023-03-19T09:49:41;100861.09;;;8.74;81.37
60974;BME280;46846;51.528;5.076;2023-03-19T09:54:50;100862.94;;;8.72;81.72
60974;BME280;46846;51.528;5.076;2023-03-19T09:57:19;100868.09;;;8.78;81.84
60974;BME280;46846;51.528;5.076;2023-03-19T09:59:45;100874.34;;;8.75;81.83
60974;BME280;46846;51.528;5.076;2023-03-19T10:02:40;100874.16;;;8.83;81.80
60974;BME280;46846;51.528;5.076;2023-03-19T10:05:25;100880.19;;;8.88;81.80
60974;BME280;46846;51.528;5.076;2023-03-19T10:11:10;100883.50;;;8.97;81.80
60974;BME280;46846;51.528;5.076;2023-03-19T10:16:29;100885.44;;;8.92;82.15
60974;BME280;46846;51.528;5.076;2023-03-19T10:18:58;100880.06;;;8.93;82.28
60974;BME280;46846;51.528;5.076;2023-03-19T10:21:49;100885.31;;;8.95;82.03
60974;BME280;46846;51.528;5.076;2023-03-19T10:24:25;100890.66;;;8.93;82.70
60974;BME280;46846;51.528;5.076;2023-03-19T10:26:58;100885.22;;;8.98;82.42
60974;BME280;46846;51.528;5.076;2023-03-19T10:29:26;100891.41;;;9.00;82.43
60974;BME280;46846;51.528;5.076;2023-03-19T10:34:36;100892.81;;;9.13;82.28
60974;BME280;46846;51.528;5.076;2023-03-19T10:37:05;100893.59;;;9.17;82.24
60974;BME280;46846;51.528;5.076;2023-03-19T10:39:34;100899.91;;;9.11;82.51
60974;BME280;46846;51.528;5.076;2023-03-19T10:42:25;100906.78;;;9.20;82.62
60974;BME280;46846;51.528;5.076;2023-03-19T10:47:50;100900.44;;;9.24;82.52
60974;BME280;46846;51.528;5.076;2023-03-19T10:50:18;100900.13;;;9.35;81.95
60974;BME280;46846;51.528;5.076;2023-03-19T10:52:51;100900.13;;;9.35;82.45
60974;BME280;46846;51.528;5.076;2023-03-19T10:55:25;100903.47;;;9.43;81.72
60974;BME280;46846;51.528;5.076;2023-03-19T11:00:29;100912.25;;;9.46;82.26
60974;BME280;46846;51.528;5.076;2023-03-19T11:03:00;100921.06;;;9.48;82.37
60974;BME280;46846;51.528;5.076;2023-03-19T11:05:30;100908.41;;;9.56;81.39
60974;BME280;46846;51.528;5.076;2023-03-19T11:08:16;100918.25;;;9.52;82.41
60974;BME280;46846;51.528;5.076;2023-03-19T11:10:46;100920.72;;;9.60;82.07
60974;BME280;46846;51.528;5.076;2023-03-19T11:13:22;100922.50;;;9.58;82.48
60974;BME280;46846;51.528;5.076;2023-03-19T11:15:48;100923.44;;;9.57;82.77
60974;BME280;46846;51.528;5.076;2023-03-19T11:18:20;100927.75;;;9.61;82.49
60974;BME280;46846;51.528;5.076;2023-03-19T11:20:58;100928.63;;;9.62;82.55
60974;BME280;46846;51.528;5.076;2023-03-19T11:23:28;100936.47;;;9.66;82.46
60974;BME280;46846;51.528;5.076;2023-03-19T11:25:58;100934.50;;;9.73;82.14
60974;BME280;46846;51.528;5.076;2023-03-19T11:28:24;100931.84;;;9.73;82.56
60974;BME280;46846;51.528;5.076;2023-03-19T11:34:05;100929.94;;;9.78;82.00
60974;BME280;46846;51.528;5.076;2023-03-19T11:37:07;100935.09;;;9.83;81.91
60974;BME280;46846;51.528;5.076;2023-03-19T11:47:29;100942.78;;;9.92;82.32
60974;BME280;46846;51.528;5.076;2023-03-19T11:50:38;100952.22;;;10.03;81.13
60974;BME280;46846;51.528;5.076;2023-03-19T12:04:20;100936.38;;;10.28;78.61
60974;BME280;46846;51.528;5.076;2023-03-19T12:07:04;100939.00;;;10.30;79.41
60974;BME280;46846;51.528;5.076;2023-03-19T12:09:41;100948.66;;;10.32;78.96
60974;BME280;46846;51.528;5.076;2023-03-19T12:12:33;100943.19;;;10.37;79.05
60974;BME280;46846;51.528;5.076;2023-03-19T12:15:37;100934.25;;;10.39;79.02
60974;BME280;46846;51.528;5.076;2023-03-19T12:20:54;100940.38;;;10.42;79.79
60974;BME280;46846;51.528;5.076;2023-03-19T12:35:02;100928.34;;;10.58;78.67
60974;BME280;46846;51.528;5.076;2023-03-19T12:37:40;100924.72;;;10.61;79.73
60974;BME280;46846;51.528;5.076;2023-03-19T12:40:28;100927.22;;;10.65;78.49
60974;BME280;46846;51.528;5.076;2023-03-19T12:42:57;100930.72;;;10.68;78.63
60974;BME280;46846;51.528;5.076;2023-03-19T12:45:45;100938.56;;;10.72;79.11
60974;BME280;46846;51.528;5.076;2023-03-19T12:48:23;100942.91;;;10.75;78.33
60974;BME280;46846;51.528;5.076;2023-03-19T12:50:53;100939.22;;;10.79;77.71
60974;BME280;46846;51.528;5.076;2023-03-19T12:53:30;100943.53;;;10.83;77.93
60974;BME280;46846;51.528;5.076;2023-03-19T12:56:03;100944.38;;;10.84;78.42
60974;BME280;46846;51.528;5.076;2023-03-19T12:58:54;100943.44;;;10.85;79.22
60974;BME280;46846;51.528;5.076;2023-03-19T13:01:26;100941.50;;;10.90;77.64
60974;BME280;46846;51.528;5.076;2023-03-19T13:04:17;100946.78;;;10.91;78.07
60974;BME280;46846;51.528;5.076;2023-03-19T13:07:05;100939.56;;;10.95;77.70
60974;BME280;46846;51.528;5.076;2023-03-19T13:09:41;100942.19;;;10.97;78.93
60974;BME280;46846;51.528;5.076;2023-03-19T13:12:17;100947.38;;;11.00;77.86
60974;BME280;46846;51.528;5.076;2023-03-19T13:15:06;100949.94;;;11.03;78.02
60974;BME280;46846;51.528;5.076;2023-03-19T13:17:49;100941.00;;;11.04;77.38
60974;BME280;46846;51.528;5.076;2023-03-19T13:23:27;100950.63;;;11.10;76.89
60974;BME280;46846;51.528;5.076;2023-03-19T13:25:56;100947.81;;;11.13;76.08
60974;BME280;46846;51.528;5.076;2023-03-19T13:28:29;100936.25;;;11.14;77.19
60974;BME280;46846;51.528;5.076;2023-03-19T13:31:03;100936.19;;;11.15;77.54
60974;BME280;46846;51.528;5.076;2023-03-19T13:33:30;100942.53;;;11.11;77.36
60974;BME280;46846;51.528;5.076;2023-03-19T13:36:00;100942.41;;;11.16;75.68
60974;BME280;46846;51.528;5.076;2023-03-19T13:38:38;100957.38;;;11.18;76.35
60974;BME280;46846;51.528;5.076;2023-03-19T13:41:05;100954.63;;;11.21;75.78
60974;BME280;46846;51.528;5.076;2023-03-19T13:43:53;100958.09;;;11.24;75.44
60974;BME280;46846;51.528;5.076;2023-03-19T13:54:04;100957.13;;;11.26;77.78
60974;BME280;46846;51.528;5.076;2023-03-19T13:59:28;100956.97;;;11.31;75.75
60974;BME280;46846;51.528;5.076;2023-03-19T14:01:56;100955.09;;;11.33;75.25
60974;BME280;46846;51.528;5.076;2023-03-19T14:04:31;100946.09;;;11.37;75.01
60974;BME280;46846;51.528;5.076;2023-03-19T14:09:37;100954.03;;;11.39;75.55
60974;BME280;46846;51.528;5.076;2023-03-19T14:17:19;100955.59;;;11.44;76.86
60974;BME280;46846;51.528;5.076;2023-03-19T14:19:46;100962.72;;;11.44;75.87
60974;BME280;46846;51.528;5.076;2023-03-19T14:22:37;100963.59;;;11.44;77.20
60974;BME280;46846;51.528;5.076;2023-03-19T14:25:18;100962.63;;;11.47;75.76
60974;BME280;46846;51.528;5.076;2023-03-19T14:27:46;100967.03;;;11.48;74.61